Time;durP1;ratioP1;P1;durP2;ratioP2;P2;SDS_P1;SDS_P2;PMS_P1;PMS_P2;Temp;Humidity;BMP_temperature;BMP_pressure;BME280_temperature;BME280_humidity;BME280_pressure;Samples;Min_cycle;Max_cycle;Signal;HPM_P1;HPM_P2
2023/12/07 00:00:38;;;;;;;;;;;;;;;-0.24;100.00;101891.56;4987248;28;19945;-73
2023/12/07 00:03:06;;;;;;;;;;;;;;;-0.29;100.00;101888.13;4993674;28;19926;-73
2023/12/07 00:05:31;;;;;;;;;;;;;;;-0.37;100.00;101891.75;4993855;28;20071;-73
2023/12/07 00:07:57;;;;;;;;;;;;;;;-0.48;100.00;101886.63;4994103;28;19936;-73
2023/12/07 00:10:22;;;;;;;;;;;;;;;-0.56;100.00;101893.81;4991056;28;19968;-73
2023/12/07 00:12:47;;;;;;;;;;;;;;;-0.66;100.00;101895.66;4994957;28;20028;-73
2023/12/07 00:15:12;;;;;;;;;;;;;;;-0.69;100.00;101897.50;4992336;28;19921;-73
2023/12/07 00:17:38;;;;;;;;;;;;;;;-0.72;100.00;101897.53;4993821;28;19992;-73
2023/12/07 00:20:05;;;;;;;;;;;;;;;-0.74;100.00;101900.19;4994600;28;20576;-73
2023/12/07 00:22:31;;;;;;;;;;;;;;;-0.73;100.00;101894.03;4998047;28;19932;-73
2023/12/07 00:24:56;;;;;;;;;;;;;;;-0.71;100.00;101902.81;4997818;28;19926;-73
2023/12/07 00:27:21;;;;;;;;;;;;;;;-0.68;100.00;101901.88;4998217;28;19960;-73
2023/12/07 00:29:46;;;;;;;;;;;;;;;-0.82;100.00;101896.78;4997469;28;20008;-73
2023/12/07 00:32:11;;;;;;;;;;;;;;;-0.88;100.00;101896.84;4997887;28;20246;-73
2023/12/07 00:34:37;;;;;;;;;;;;;;;-0.96;100.00;101896.97;4996681;28;20235;-73
2023/12/07 00:37:03;;;;;;;;;;;;;;;-1.10;100.00;101902.41;4996126;28;19922;-74
2023/12/07 00:39:28;;;;;;;;;;;;;;;-1.23;100.00;101896.41;4997003;28;20419;-74
2023/12/07 00:41:53;;;;;;;;;;;;;;;-1.26;100.00;101901.69;4997293;28;20002;-73
2023/12/07 00:44:19;;;;;;;;;;;;;;;-1.31;100.00;101906.16;4997814;28;19922;-73
2023/12/07 00:46:44;;;;;;;;;;;;;;;-1.29;100.00;101901.75;4996563;28;19921;-73
2023/12/07 00:49:09;;;;;;;;;;;;;;;-1.26;100.00;101896.44;4996359;28;20443;-73
2023/12/07 00:51:35;;;;;;;;;;;;;;;-1.21;100.00;101894.63;4996210;28;20368;-73
2023/12/07 00:54:00;;;;;;;;;;;;;;;-1.18;100.00;101897.22;4997128;28;19928;-73
2023/12/07 00:56:25;;;;;;;;;;;;;;;-1.15;100.00;101899.84;4997177;28;20094;-73
2023/12/07 00:58:50;;;;;;;;;;;;;;;-1.22;100.00;101904.31;4997164;28;19965;-73
2023/12/07 01:01:15;;;;;;;;;;;;;;;-1.26;100.00;101905.22;4994391;28;20015;-74
2023/12/07 01:03:41;;;;;;;;;;;;;;;-1.35;100.00;101910.59;4995276;28;19921;-73
2023/12/07 01:06:06;;;;;;;;;;;;;;;-1.45;100.00;101911.56;4996677;28;19922;-74
2023/12/07 01:08:32;;;;;;;;;;;;;;;-1.57;100.00;101908.19;4994957;28;20450;-73
2023/12/07 01:10:57;;;;;;;;;;;;;;;-1.67;100.00;101909.16;4996679;28;20016;-74
2023/12/07 01:13:23;;;;;;;;;;;;;;;-1.76;100.00;101909.25;4995410;28;19925;-74
2023/12/07 01:15:48;;;;;;;;;;;;;;;-1.86;100.00;101916.38;4997872;28;19960;-74
2023/12/07 01:18:14;;;;;;;;;;;;;;;-1.83;100.00;101916.31;4993890;28;19967;-73
2023/12/07 01:20:39;;;;;;;;;;;;;;;-1.85;100.00;101915.44;4996869;28;20003;-74
2023/12/07 01:23:04;;;;;;;;;;;;;;;-1.87;100.00;101928.66;4993202;28;20036;-74
2023/12/07 01:25:29;;;;;;;;;;;;;;;-2.05;100.00;101932.28;4998525;28;19925;-73
2023/12/07 01:27:54;;;;;;;;;;;;;;;-2.16;100.00;101934.16;4993914;28;19921;-73
2023/12/07 01:30:20;;;;;;;;;;;;;;;-2.16;100.00;101926.25;4994573;28;19972;-73
2023/12/07 01:32:45;;;;;;;;;;;;;;;-2.15;100.00;101931.50;4992058;28;20067;-73
2023/12/07 01:35:10;;;;;;;;;;;;;;;-2.17;100.00;101938.50;4995225;28;19925;-73
2023/12/07 01:37:35;;;;;;;;;;;;;;;-2.19;100.00;101931.53;4995709;28;19929;-73
2023/12/07 01:40:01;;;;;;;;;;;;;;;-2.13;100.00;101934.13;4994080;28;19987;-73
2023/12/07 01:42:26;;;;;;;;;;;;;;;-2.20;100.00;101909.59;4995761;28;19922;-73
2023/12/07 01:44:51;;;;;;;;;;;;;;;-1.99;100.00;101936.66;4996009;28;20028;-73
2023/12/07 01:47:16;;;;;;;;;;;;;;;-1.96;100.00;101936.59;4980622;28;20246;-73
2023/12/07 01:49:42;;;;;;;;;;;;;;;-1.96;100.00;101929.59;4996016;28;19925;-73
2023/12/07 01:52:07;;;;;;;;;;;;;;;-2.05;100.00;101936.69;4976644;28;19921;-73
2023/12/07 01:54:32;;;;;;;;;;;;;;;-2.10;100.00;101926.19;4992910;28;20221;-73
2023/12/07 01:56:57;;;;;;;;;;;;;;;-2.04;100.00;101927.91;4995461;28;19987;-72
2023/12/07 01:59:23;;;;;;;;;;;;;;;-2.05;100.00;101927.03;4996631;28;19925;-73
2023/12/07 02:01:48;;;;;;;;;;;;;;;-2.06;100.00;101924.41;4996707;28;19921;-73
2023/12/07 02:04:14;;;;;;;;;;;;;;;-2.18;100.00;101922.75;4994336;28;19950;-73
2023/12/07 02:06:39;;;;;;;;;;;;;;;-2.30;100.00;101931.59;4993552;28;19960;-73
2023/12/07 02:09:05;;;;;;;;;;;;;;;-2.42;100.00;101935.19;4993979;28;20016;-73
2023/12/07 02:11:30;;;;;;;;;;;;;;;-2.45;100.00;101935.22;4997268;28;20288;-73
2023/12/07 02:13:57;;;;;;;;;;;;;;;-2.45;100.00;101937.84;4995156;28;19964;-72
2023/12/07 02:16:41;;;;;;;;;;;;;;;-2.41;100.00;101937.78;4994452;28;20352;-72
2023/12/07 02:19:31;;;;;;;;;;;;;;;-2.41;100.00;101940.44;4994178;28;19982;-73
2023/12/07 02:21:59;;;;;;;;;;;;;;;-2.36;100.00;101927.25;4995765;28;19925;-73
2023/12/07 02:24:24;;;;;;;;;;;;;;;-2.28;100.00;101929.84;4991591;28;20021;-72
2023/12/07 02:26:50;;;;;;;;;;;;;;;-2.24;100.00;101926.28;4992638;28;20270;-73
2023/12/07 02:29:15;;;;;;;;;;;;;;;-2.18;100.00;101931.50;4994268;28;20368;-72
2023/12/07 02:31:40;;;;;;;;;;;;;;;-2.11;100.00;101925.31;4995101;28;19971;-72
2023/12/07 02:34:05;;;;;;;;;;;;;;;-2.06;100.00;101930.53;4995381;28;19972;-73
2023/12/07 02:36:31;;;;;;;;;;;;;;;-2.02;100.00;101921.75;4994415;28;20044;-72
2023/12/07 02:38:56;;;;;;;;;;;;;;;-1.99;100.00;101920.88;4992942;28;20043;-73
2023/12/07 02:41:21;;;;;;;;;;;;;;;-2.02;100.00;101921.75;4980286;28;20306;-72
2023/12/07 02:43:47;;;;;;;;;;;;;;;-2.04;100.00;101920.88;4994453;28;19972;-72
2023/12/07 02:46:12;;;;;;;;;;;;;;;-2.07;100.00;101923.53;4992343;28;20028;-72
2023/12/07 02:48:37;;;;;;;;;;;;;;;-2.06;100.00;101916.53;4974462;28;19925;-72
2023/12/07 02:51:02;;;;;;;;;;;;;;;-2.07;100.00;101914.78;4994559;28;19929;-72
2023/12/07 02:53:27;;;;;;;;;;;;;;;-2.08;100.00;101906.00;4993562;28;19927;-72
2023/12/07 02:55:53;;;;;;;;;;;;;;;-2.07;100.00;101909.50;4996343;28;19921;-72
2023/12/07 02:58:18;;;;;;;;;;;;;;;-2.07;100.00;101912.16;4992797;28;20129;-72
2023/12/07 03:00:43;;;;;;;;;;;;;;;-2.01;100.00;101909.47;4978614;28;19969;-72
2023/12/07 03:03:08;;;;;;;;;;;;;;;-1.89;100.00;101904.09;4993316;28;20031;-72
2023/12/07 03:05:34;;;;;;;;;;;;;;;-1.83;100.00;101903.16;4977998;28;19928;-72
2023/12/07 03:07:59;;;;;;;;;;;;;;;-1.78;100.00;101897.88;4992759;28;20036;-72
2023/12/07 03:10:24;;;;;;;;;;;;;;;-1.78;100.00;101897.88;4994614;28;20024;-72
2023/12/07 03:12:49;;;;;;;;;;;;;;;-1.80;100.00;101897.84;4992267;28;20198;-72
2023/12/07 03:15:14;;;;;;;;;;;;;;;-1.81;100.00;101896.13;4976717;28;19968;-72
2023/12/07 03:17:40;;;;;;;;;;;;;;;-1.79;100.00;101898.75;4975057;28;19921;-72
2023/12/07 03:20:05;;;;;;;;;;;;;;;-1.79;100.00;101890.84;4992861;28;19965;-72
2023/12/07 03:22:30;;;;;;;;;;;;;;;-1.82;100.00;101900.53;4993080;28;19917;-72
2023/12/07 03:24:56;;;;;;;;;;;;;;;-1.74;100.00;101896.94;4995433;28;19925;-72
2023/12/07 03:27:21;;;;;;;;;;;;;;;-1.80;100.00;101895.22;4994439;28;20540;-72
2023/12/07 03:29:46;;;;;;;;;;;;;;;-1.84;100.00;101897.03;4977248;28;20345;-72
2023/12/07 03:32:11;;;;;;;;;;;;;;;-1.79;100.00;101894.34;4993977;28;20605;-72
2023/12/07 03:34:36;;;;;;;;;;;;;;;-1.86;100.00;101888.28;4994044;28;20008;-72
2023/12/07 03:37:03;;;;;;;;;;;;;;;-1.88;100.00;101897.94;4994476;28;19957;-72
2023/12/07 03:39:29;;;;;;;;;;;;;;;-1.91;100.00;101892.69;4989850;28;19921;-72
2023/12/07 03:41:54;;;;;;;;;;;;;;;-2.03;100.00;101891.03;4992174;28;20048;-72
2023/12/07 03:44:19;;;;;;;;;;;;;;;-2.09;100.00;101895.50;4991001;28;19980;-72
2023/12/07 03:46:45;;;;;;;;;;;;;;;-1.97;100.00;101888.38;4992518;28;20222;-71
2023/12/07 03:49:10;;;;;;;;;;;;;;;-2.01;100.00;101891.03;4990024;28;19917;-72
2023/12/07 03:51:36;;;;;;;;;;;;;;;-1.94;100.00;101887.44;4990229;28;19925;-72
2023/12/07 03:54:01;;;;;;;;;;;;;;;-2.01;100.00;101891.03;4974669;28;19921;-72
2023/12/07 03:56:28;;;;;;;;;;;;;;;-2.03;100.00;101892.81;4997256;28;19948;-72
2023/12/07 03:58:53;;;;;;;;;;;;;;;-1.98;100.00;101896.25;4999123;28;19924;-72
2023/12/07 04:01:22;;;;;;;;;;;;;;;-1.96;100.00;101895.38;4998370;28;19933;-71
2023/12/07 04:03:47;;;;;;;;;;;;;;;-1.92;100.00;101887.47;4998960;28;20368;-71
2023/12/07 04:06:12;;;;;;;;;;;;;;;-1.93;100.00;101898.88;4999220;28;19929;-72
2023/12/07 04:08:37;;;;;;;;;;;;;;;-1.88;100.00;101895.31;4997702;28;19968;-72
2023/12/07 04:11:03;;;;;;;;;;;;;;;-1.86;100.00;101895.31;4999947;28;19932;-72
2023/12/07 04:13:28;;;;;;;;;;;;;;;-1.91;100.00;101891.84;4999623;28;21011;-71
2023/12/07 04:15:53;;;;;;;;;;;;;;;-1.87;100.00;101894.41;4998179;28;19988;-71
2023/12/07 04:18:18;;;;;;;;;;;;;;;-1.92;100.00;101896.22;4999073;28;19963;-71
2023/12/07 04:20:44;;;;;;;;;;;;;;;-1.82;100.00;101884.72;5003884;28;20252;-72
2023/12/07 04:23:09;;;;;;;;;;;;;;;-1.80;100.00;101889.97;5002507;28;20334;-71
2023/12/07 04:25:34;;;;;;;;;;;;;;;-1.86;100.00;101890.91;4998877;28;20462;-72
2023/12/07 04:27:59;;;;;;;;;;;;;;;-1.79;100.00;101881.19;5000295;28;20399;-72
2023/12/07 04:30:25;;;;;;;;;;;;;;;-1.77;100.00;101879.41;4997766;28;19930;-72
2023/12/07 04:32:50;;;;;;;;;;;;;;;-1.85;100.00;101882.13;4998046;28;19929;-71
2023/12/07 04:35:15;;;;;;;;;;;;;;;-1.93;100.00;101881.31;4997691;28;20368;-71
2023/12/07 04:37:40;;;;;;;;;;;;;;;-1.89;100.00;101875.13;5000778;28;19921;-71
2023/12/07 04:40:06;;;;;;;;;;;;;;;-1.74;100.00;101871.47;4996798;28;19921;-72
2023/12/07 04:42:31;;;;;;;;;;;;;;;-1.90;100.00;101881.28;4998718;28;19967;-72
2023/12/07 04:44:56;;;;;;;;;;;;;;;-2.00;100.00;101875.22;4998452;28;19984;-71
2023/12/07 04:47:23;;;;;;;;;;;;;;;-2.00;100.00;101871.75;5000629;28;19967;-71
2023/12/07 04:49:48;;;;;;;;;;;;;;;-1.91;100.00;101869.00;4998603;28;20012;-71
2023/12/07 04:52:13;;;;;;;;;;;;;;;-1.98;100.00;101876.09;4998993;28;19921;-71
2023/12/07 04:54:39;;;;;;;;;;;;;;;-1.89;100.00;101864.59;4997962;28;19943;-71
2023/12/07 04:57:04;;;;;;;;;;;;;;;-1.97;100.00;101869.06;4997695;28;19921;-71
2023/12/07 04:59:29;;;;;;;;;;;;;;;-1.91;100.00;101870.78;4982114;28;20285;-72
2023/12/07 05:01:54;;;;;;;;;;;;;;;-1.93;100.00;101864.66;4996746;28;20352;-72
2023/12/07 05:04:20;;;;;;;;;;;;;;;-1.83;100.00;101863.66;4998811;28;20480;-72
2023/12/07 05:06:45;;;;;;;;;;;;;;;-1.84;100.00;101864.53;4997111;28;19921;-71
2023/12/07 05:09:10;;;;;;;;;;;;;;;-1.79;100.00;101862.75;4978473;28;19917;-72
2023/12/07 05:11:36;;;;;;;;;;;;;;;-1.64;100.00;101848.56;4993225;28;19979;-71
2023/12/07 05:14:03;;;;;;;;;;;;;;;-1.74;100.00;101847.78;4997814;28;19921;-71
2023/12/07 05:16:28;;;;;;;;;;;;;;;-1.86;100.00;101850.56;4996246;28;19952;-71
2023/12/07 05:18:53;;;;;;;;;;;;;;;-1.91;100.00;101863.75;4980563;28;19921;-71
2023/12/07 05:21:18;;;;;;;;;;;;;;;-1.72;100.00;101846.00;4978970;28;19975;-72
2023/12/07 05:23:44;;;;;;;;;;;;;;;-1.78;100.00;101859.22;4979587;28;20012;-71
2023/12/07 05:26:10;;;;;;;;;;;;;;;-1.88;100.00;101845.28;4994268;28;20030;-71
2023/12/07 05:28:36;;;;;;;;;;;;;;;-1.85;100.00;101839.09;4981097;28;19933;-71
2023/12/07 05:31:01;;;;;;;;;;;;;;;-1.71;100.00;101834.59;4993316;28;19933;-71
2023/12/07 05:33:26;;;;;;;;;;;;;;;-1.81;100.00;101836.44;4996722;28;19921;-71
2023/12/07 05:35:51;;;;;;;;;;;;;;;-1.77;100.00;101829.38;4993118;28;19988;-71
2023/12/07 05:38:16;;;;;;;;;;;;;;;-1.77;100.00;101839.91;4994470;28;20051;-71
2023/12/07 05:40:42;;;;;;;;;;;;;;;-1.80;100.00;101837.31;4992683;28;19959;-72
2023/12/07 05:43:08;;;;;;;;;;;;;;;-1.89;100.00;101840.91;4992511;28;19921;-72
2023/12/07 05:45:33;;;;;;;;;;;;;;;-1.83;100.00;101832.06;4994819;28;20215;-71
2023/12/07 05:47:58;;;;;;;;;;;;;;;-1.75;100.00;101829.38;4993270;28;20339;-71
2023/12/07 05:50:23;;;;;;;;;;;;;;;-1.84;100.00;101825.94;4993640;28;20299;-71
2023/12/07 05:52:49;;;;;;;;;;;;;;;-1.80;100.00;101818.88;4992305;28;20552;-71
2023/12/07 05:55:14;;;;;;;;;;;;;;;-1.91;100.00;101828.66;4992146;28;19922;-71
2023/12/07 05:57:40;;;;;;;;;;;;;;;-1.92;100.00;101817.25;4993101;28;19922;-71
2023/12/07 06:00:09;;;;;;;;;;;;;;;-1.90;100.00;101815.47;4994590;28;19921;-72
2023/12/07 06:02:34;;;;;;;;;;;;;;;-1.86;100.00;101817.19;4994606;28;20382;-71
2023/12/07 06:04:59;;;;;;;;;;;;;;;-1.89;100.00;101806.69;4994361;28;20273;-71
2023/12/07 06:07:24;;;;;;;;;;;;;;;-1.79;100.00;101801.34;4994354;28;20023;-71
2023/12/07 06:09:50;;;;;;;;;;;;;;;-1.74;100.00;101803.00;4990489;28;19968;-71
2023/12/07 06:12:15;;;;;;;;;;;;;;;-1.82;100.00;101808.38;4977665;28;20016;-71
2023/12/07 06:14:40;;;;;;;;;;;;;;;-1.89;100.00;101804.06;4993683;28;19925;-71
2023/12/07 06:17:05;;;;;;;;;;;;;;;-1.82;100.00;101800.47;4993042;28;19960;-71
2023/12/07 06:19:33;;;;;;;;;;;;;;;-1.79;100.00;101798.69;4993145;28;19921;-71
2023/12/07 06:21:58;;;;;;;;;;;;;;;-1.78;100.00;101803.06;4993429;28;19924;-71
2023/12/07 06:24:24;;;;;;;;;;;;;;;-1.92;100.00;101775.13;4993521;28;19951;-72
2023/12/07 06:26:50;;;;;;;;;;;;;;;-1.89;100.00;101768.97;4992536;28;20237;-71
2023/12/07 06:29:15;;;;;;;;;;;;;;;-1.92;100.00;101769.00;4995887;28;20410;-72
2023/12/07 06:31:43;;;;;;;;;;;;;;;-1.96;100.00;101770.78;4995326;28;19933;-71
2023/12/07 06:34:09;;;;;;;;;;;;;;;-1.94;100.00;101773.41;4992685;28;19960;-71
2023/12/07 06:36:35;;;;;;;;;;;;;;;-1.96;100.00;101766.41;4980694;28;20288;-72
2023/12/07 06:39:01;;;;;;;;;;;;;;;-1.84;100.00;101760.13;4996503;28;20316;-72
2023/12/07 06:41:26;;;;;;;;;;;;;;;-1.86;100.00;101761.03;4993469;28;19926;-71
2023/12/07 06:43:51;;;;;;;;;;;;;;;-1.90;100.00;101768.09;4996436;28;19932;-72
2023/12/07 06:46:17;;;;;;;;;;;;;;;-1.92;100.00;101763.72;4993869;28;19952;-72
2023/12/07 06:48:42;;;;;;;;;;;;;;;-1.77;100.00;101762.69;4978003;28;19918;-71
2023/12/07 06:51:07;;;;;;;;;;;;;;;-1.90;100.00;101764.59;4976750;28;20365;-72
2023/12/07 06:53:32;;;;;;;;;;;;;;;-1.85;100.00;101754.84;4994418;28;19921;-71
2023/12/07 06:55:58;;;;;;;;;;;;;;;-1.82;100.00;101750.44;4993683;28;19960;-71
2023/12/07 06:58:23;;;;;;;;;;;;;;;-1.81;100.00;101754.81;4994373;28;19925;-72
2023/12/07 07:00:49;;;;;;;;;;;;;;;-1.86;100.00;101756.63;4977787;28;20176;-72
2023/12/07 07:03:14;;;;;;;;;;;;;;;-1.94;100.00;101761.09;4978421;28;19918;-72
2023/12/07 07:05:40;;;;;;;;;;;;;;;-1.89;100.00;101764.56;4995880;28;19922;-71
2023/12/07 07:08:07;;;;;;;;;;;;;;;-1.69;100.00;101750.28;4978952;28;19928;-72
2023/12/07 07:10:32;;;;;;;;;;;;;;;-1.67;100.00;101766.94;4995612;28;19925;-72
2023/12/07 07:13:04;;;;;;;;;;;;;;;-1.75;100.00;101747.75;4991448;28;20299;-72
2023/12/07 07:15:29;;;;;;;;;;;;;;;-1.77;100.00;101747.75;4999122;28;19931;-71
2023/12/07 07:17:54;;;;;;;;;;;;;;;-1.62;100.00;101751.09;4976673;28;19921;-71
2023/12/07 07:20:20;;;;;;;;;;;;;;;-1.72;100.00;101748.56;4976881;28;19926;-72
2023/12/07 07:22:45;;;;;;;;;;;;;;;-1.70;100.00;101756.44;4990436;28;20323;-72
2023/12/07 07:25:11;;;;;;;;;;;;;;;-1.79;100.00;101748.66;4993250;28;19948;-71
2023/12/07 07:27:36;;;;;;;;;;;;;;;-1.78;100.00;101753.91;4978147;28;19925;-72
2023/12/07 07:30:04;;;;;;;;;;;;;;;-1.85;100.00;101758.38;4990880;28;20384;-71
2023/12/07 07:32:29;;;;;;;;;;;;;;;-1.84;100.00;101749.59;4990593;28;19922;-72
2023/12/07 07:34:54;;;;;;;;;;;;;;;-1.69;100.00;101751.19;4993514;28;20678;-72
2023/12/07 07:37:19;;;;;;;;;;;;;;;-1.63;100.00;101754.63;4992160;28;20299;-72
2023/12/07 07:39:44;;;;;;;;;;;;;;;-1.63;100.00;101752.84;4976683;28;19922;-73
2023/12/07 07:42:10;;;;;;;;;;;;;;;-1.55;100.00;101751.00;4990291;28;20009;-72
2023/12/07 07:44:35;;;;;;;;;;;;;;;-1.58;100.00;101750.16;4992789;28;20345;-72
2023/12/07 07:47:00;;;;;;;;;;;;;;;-1.60;100.00;101749.34;4995866;28;20291;-72
2023/12/07 07:49:25;;;;;;;;;;;;;;;-1.56;100.00;101746.63;4993139;28;19932;-72
2023/12/07 07:51:51;;;;;;;;;;;;;;;-1.56;100.00;101748.38;4995022;28;20244;-72
2023/12/07 07:54:16;;;;;;;;;;;;;;;-1.57;100.00;101760.69;4993189;28;20179;-72
2023/12/07 07:56:42;;;;;;;;;;;;;;;-1.53;100.00;101762.41;4990782;28;19932;-72
2023/12/07 07:59:08;;;;;;;;;;;;;;;-1.41;100.00;101763.13;4989255;28;20051;-72
2023/12/07 08:01:33;;;;;;;;;;;;;;;-1.42;100.00;101757.00;4992046;28;20331;-72
2023/12/07 08:03:58;;;;;;;;;;;;;;;-1.44;100.00;101764.03;4990991;28;20326;-72
2023/12/07 08:06:23;;;;;;;;;;;;;;;-1.44;100.00;101771.94;4974683;28;20398;-72
2023/12/07 08:08:49;;;;;;;;;;;;;;;-1.30;100.00;101761.22;4986582;28;19929;-72
2023/12/07 08:11:15;;;;;;;;;;;;;;;-1.38;100.00;101763.97;4990113;28;19964;-72
2023/12/07 08:13:40;;;;;;;;;;;;;;;-1.38;100.00;101760.44;4990807;28;19921;-73
2023/12/07 08:16:08;;;;;;;;;;;;;;;-1.40;100.00;101752.56;4974799;28;19925;-72
2023/12/07 08:18:33;;;;;;;;;;;;;;;-1.35;100.00;101752.50;4988912;28;20614;-72
2023/12/07 08:20:58;;;;;;;;;;;;;;;-1.31;100.00;101741.03;4991297;28;19956;-72
2023/12/07 08:23:24;;;;;;;;;;;;;;;-1.24;100.00;101736.53;4987011;28;19934;-72
2023/12/07 08:25:49;;;;;;;;;;;;;;;-1.26;100.00;101736.56;4991718;28;19922;-72
2023/12/07 08:28:14;;;;;;;;;;;;;;;-1.29;100.00;101733.09;4989468;28;19921;-72
2023/12/07 08:30:39;;;;;;;;;;;;;;;-1.27;100.00;101747.13;4992227;28;19932;-73
2023/12/07 08:33:05;;;;;;;;;;;;;;;-1.27;100.00;101752.38;4975904;28;19932;-72
2023/12/07 08:35:30;;;;;;;;;;;;;;;-1.23;100.00;101747.09;4991401;28;19952;-72
2023/12/07 08:37:55;;;;;;;;;;;;;;;-1.23;100.00;101754.09;4991892;28;19933;-72
2023/12/07 08:40:20;;;;;;;;;;;;;;;-1.16;100.00;101753.13;4991604;28;20287;-72
2023/12/07 08:42:46;;;;;;;;;;;;;;;-1.15;100.00;101751.34;4997454;28;20464;-72
2023/12/07 08:45:13;;;;;;;;;;;;;;;-1.11;100.00;101746.03;4993386;28;20443;-72
2023/12/07 08:47:38;;;;;;;;;;;;;;;-1.27;100.00;101752.38;4994275;28;19922;-72
2023/12/07 08:50:04;;;;;;;;;;;;;;;-1.29;100.00;101759.44;4997587;28;19929;-72
2023/12/07 08:52:29;;;;;;;;;;;;;;;-1.17;100.00;101747.84;4993072;28;20264;-72
2023/12/07 08:54:54;;;;;;;;;;;;;;;-1.18;100.00;101732.94;4997192;28;19921;-71
2023/12/07 08:57:19;;;;;;;;;;;;;;;-1.14;100.00;101753.09;4997082;28;19957;-72
2023/12/07 08:59:45;;;;;;;;;;;;;;;-1.12;100.00;101756.56;4993086;28;20021;-72
2023/12/07 09:02:10;;;;;;;;;;;;;;;-1.03;100.00;101753.81;4998356;28;20035;-71
2023/12/07 09:04:35;;;;;;;;;;;;;;;-1.10;100.00;101755.69;4993222;28;19926;-72
2023/12/07 09:07:00;;;;;;;;;;;;;;;-0.93;100.00;101755.41;4996819;28;20276;-71
2023/12/07 09:09:26;;;;;;;;;;;;;;;-0.94;100.00;101742.25;4995511;28;19921;-71
2023/12/07 09:11:51;;;;;;;;;;;;;;;-1.02;100.00;101742.38;4997648;28;19930;-71
2023/12/07 09:14:16;;;;;;;;;;;;;;;-0.98;100.00;101741.44;4993304;28;19949;-72
2023/12/07 09:16:45;;;;;;;;;;;;;;;-0.95;100.00;101733.50;4995298;28;19961;-72
2023/12/07 09:19:11;;;;;;;;;;;;;;;-0.94;100.00;101729.97;4996340;28;20126;-72
2023/12/07 09:21:37;;;;;;;;;;;;;;;-0.95;100.00;101732.59;4996488;28;20032;-74
2023/12/07 09:24:02;;;;;;;;;;;;;;;-0.92;100.00;101733.41;4994558;28;20384;-72
2023/12/07 09:26:27;;;;;;;;;;;;;;;-0.91;100.00;101736.94;5000541;28;20383;-73
2023/12/07 09:28:52;;;;;;;;;;;;;;;-0.88;100.00;101721.09;4995966;28;20341;-73
2023/12/07 09:31:18;;;;;;;;;;;;;;;-0.87;100.00;101711.38;4996639;28;20368;-73
2023/12/07 09:33:43;;;;;;;;;;;;;;;-0.83;100.00;101702.53;4996145;28;19933;-73
2023/12/07 09:36:08;;;;;;;;;;;;;;;-0.74;100.00;101709.41;4994888;28;19921;-73
2023/12/07 09:38:35;;;;;;;;;;;;;;;-0.75;100.00;101711.19;4996054;28;20010;-73
2023/12/07 09:41:00;;;;;;;;;;;;;;;-0.67;100.00;101714.59;4996872;28;19944;-73
2023/12/07 09:43:25;;;;;;;;;;;;;;;-0.55;100.00;101707.34;4999179;28;20629;-74
2023/12/07 09:45:51;;;;;;;;;;;;;;;-0.58;100.00;101707.41;4991866;28;19926;-74
2023/12/07 09:48:16;;;;;;;;;;;;;;;-0.51;100.00;101704.63;4996047;28;19921;-74
2023/12/07 09:50:41;;;;;;;;;;;;;;;-0.52;100.00;101710.78;4993360;28;19926;-74
2023/12/07 09:53:07;;;;;;;;;;;;;;;-0.48;100.00;101703.72;4996003;28;19921;-74
2023/12/07 09:55:33;;;;;;;;;;;;;;;-0.40;100.00;101704.47;4996037;28;19964;-74
2023/12/07 09:57:58;;;;;;;;;;;;;;;-0.38;100.00;101699.13;4995057;28;19944;-73
2023/12/07 10:00:24;;;;;;;;;;;;;;;-0.28;100.00;101684.88;4996903;28;20012;-74
2023/12/07 10:02:50;;;;;;;;;;;;;;;-0.32;100.00;101675.28;4996610;28;19927;-73
2023/12/07 10:05:18;;;;;;;;;;;;;;;-0.24;100.00;101675.13;4993992;28;19949;-73
2023/12/07 10:07:44;;;;;;;;;;;;;;;-0.13;100.00;101672.28;4990763;28;20621;-73
2023/12/07 10:10:13;;;;;;;;;;;;;;;-0.11;100.00;101657.28;4994813;28;19921;-73
2023/12/07 10:12:46;;;;;;;;;;;;;;;-0.03;100.00;101656.22;4997587;28;20309;-72
2023/12/07 10:15:13;;;;;;;;;;;;;;;-0.06;100.00;101655.44;4993106;28;20346;-72
2023/12/07 10:17:48;;;;;;;;;;;;;;;0.04;100.00;101658.75;5000886;28;20016;-73
2023/12/07 10:20:14;;;;;;;;;;;;;;;0.04;100.00;101654.31;4994341;28;19972;-73
2023/12/07 10:22:39;;;;;;;;;;;;;;;0.10;100.00;101655.97;4997618;28;20004;-72
2023/12/07 10:25:05;;;;;;;;;;;;;;;0.21;100.00;101650.47;4992630;28;19932;-72
2023/12/07 10:27:30;;;;;;;;;;;;;;;0.33;100.00;101646.69;4994787;28;20023;-73
2023/12/07 10:29:57;;;;;;;;;;;;;;;0.36;100.00;101639.56;4991783;28;19921;-73
2023/12/07 10:32:22;;;;;;;;;;;;;;;0.43;100.00;101641.16;4993503;28;19921;-72
2023/12/07 10:34:47;;;;;;;;;;;;;;;0.55;100.00;101632.09;4996949;28;19928;-73
2023/12/07 10:37:12;;;;;;;;;;;;;;;0.62;100.00;101638.09;4997884;28;19921;-73
2023/12/07 10:39:37;;;;;;;;;;;;;;;0.59;100.00;101633.75;4994313;28;19921;-72
2023/12/07 10:42:03;;;;;;;;;;;;;;;0.68;100.00;101634.44;4995468;28;20055;-72
2023/12/07 10:44:28;;;;;;;;;;;;;;;0.76;100.00;101628.97;4994848;28;19992;-72
2023/12/07 10:46:54;;;;;;;;;;;;;;;0.93;100.00;101625.94;4991466;28;19948;-72
2023/12/07 10:49:19;;;;;;;;;;;;;;;0.96;100.00;101620.53;4997106;28;20032;-73
2023/12/07 10:51:44;;;;;;;;;;;;;;;1.07;100.00;101621.16;4994958;28;20443;-72
2023/12/07 10:54:11;;;;;;;;;;;;;;;1.04;100.00;101624.75;4994800;28;20544;-72
2023/12/07 10:56:43;;;;;;;;;;;;;;;1.10;100.00;101625.47;4994343;28;20009;-73
2023/12/07 10:59:11;;;;;;;;;;;;;;;1.22;100.00;101634.88;4995338;28;20580;-72
2023/12/07 11:01:36;;;;;;;;;;;;;;;1.24;100.00;101641.88;4996309;28;19925;-71
2023/12/07 11:04:01;;;;;;;;;;;;;;;1.28;100.00;101642.66;4992212;28;20365;-72
2023/12/07 11:06:27;;;;;;;;;;;;;;;1.32;100.00;101661.09;4996340;28;20399;-72
2023/12/07 11:08:57;;;;;;;;;;;;;;;1.37;100.00;101665.34;4998536;28;20015;-72
2023/12/07 11:11:33;;;;;;;;;;;;;;;1.30;100.00;101660.25;4989729;28;19936;-72
2023/12/07 11:13:59;;;;;;;;;;;;;;;1.36;100.00;101675.09;4992302;28;20011;-71
2023/12/07 11:16:30;;;;;;;;;;;;;;;1.50;100.00;101672.94;4993187;28;19996;-73
2023/12/07 11:18:56;;;;;;;;;;;;;;;1.48;100.00;101676.53;4994517;28;19922;-72
2023/12/07 11:21:21;;;;;;;;;;;;;;;1.50;100.00;101680.88;4993193;28;20303;-72
2023/12/07 11:23:46;;;;;;;;;;;;;;;1.65;100.00;101684.91;4991264;28;20119;-71
2023/12/07 11:26:11;;;;;;;;;;;;;;;1.70;100.00;101690.09;4994437;28;19921;-71
2023/12/07 11:28:39;;;;;;;;;;;;;;;1.77;100.00;101691.63;4995908;28;22296;-71
2023/12/07 11:31:07;;;;;;;;;;;;;;;1.87;100.00;101691.41;4994359;28;20463;-72
2023/12/07 11:33:32;;;;;;;;;;;;;;;2.18;100.00;101693.19;4997122;28;20287;-71
2023/12/07 11:36:05;;;;;;;;;;;;;;;2.45;100.00;101711.84;4990723;28;19928;-72
2023/12/07 11:38:30;;;;;;;;;;;;;;;2.42;100.00;101718.06;4991831;28;20367;-72
2023/12/07 11:40:56;;;;;;;;;;;;;;;2.98;100.00;101711.06;4993059;28;19921;-71
2023/12/07 11:43:35;;;;;;;;;;;;;;;3.69;100.00;101727.34;4997585;28;20296;-72
2023/12/07 11:46:00;;;;;;;;;;;;;;;4.35;100.00;101736.50;4995641;28;19921;-72
2023/12/07 11:48:25;;;;;;;;;;;;;;;4.75;100.00;101745.63;4995321;28;19921;-71
2023/12/07 11:50:59;;;;;;;;;;;;;;;5.26;100.00;101758.72;4996571;28;20016;-71
2023/12/07 11:53:29;;;;;;;;;;;;;;;5.50;100.00;101759.50;4994867;28;19932;-71
2023/12/07 11:55:55;;;;;;;;;;;;;;;5.58;100.00;101753.84;4994112;28;20177;-72
2023/12/07 11:58:20;;;;;;;;;;;;;;;5.36;100.00;101759.19;4994824;28;19925;-72
2023/12/07 12:00:48;;;;;;;;;;;;;;;5.20;100.00;101749.19;4995911;28;19960;-72
2023/12/07 12:03:14;;;;;;;;;;;;;;;4.95;100.00;101738.63;4993776;28;20592;-72
2023/12/07 12:05:40;;;;;;;;;;;;;;;4.68;100.00;101737.94;4991289;28;19940;-72
2023/12/07 12:08:05;;;;;;;;;;;;;;;5.01;100.00;101730.41;4990812;28;19928;-72
2023/12/07 12:10:31;;;;;;;;;;;;;;;5.35;100.00;101731.72;4993513;28;19921;-71
2023/12/07 12:12:56;;;;;;;;;;;;;;;5.58;100.00;101734.31;4992306;28;19917;-72
2023/12/07 12:15:21;;;;;;;;;;;;;;;5.82;100.00;101729.75;4990921;28;19959;-72
2023/12/07 12:17:46;;;;;;;;;;;;;;;6.24;100.00;101734.13;4992415;28;19925;-73
2023/12/07 12:20:17;;;;;;;;;;;;;;;5.53;100.00;101730.06;4996599;28;19913;-72